Aviation Digital Data Service (ADDS)

Output produced by METARs form (0633 UTC 21 April 2015)
found at http://aviationweather.gov/adds/metars/
 
KBDR 210522Z 2106/2206 08010KT 1/4SM FG VV002 
     TEMPO 2106/2108 2SM SHRA BKN005 OVC010 
     FM210900 20005KT 1/2SM -DZ FG OVC004 
     FM211300 23007KT 6SM BR BKN025 
     FM211600 27013G20KT P6SM SCT050 
     FM220100 25008KT P6SM SCT050